createdAt,value
2024-01-27T00:01:20.652Z,3.35
2024-01-27T00:03:48.259Z,3.58
2024-01-27T00:06:15.824Z,3.25
2024-01-27T00:08:43.505Z,3.07
2024-01-27T00:11:13.147Z,2.80
2024-01-27T00:13:42.083Z,3.31
2024-01-27T00:16:10.612Z,2.96
2024-01-27T00:18:39.120Z,3.15
2024-01-27T00:21:08.814Z,3.19
2024-01-27T00:23:36.468Z,2.89
2024-01-27T00:26:04.154Z,3.24
2024-01-27T00:28:31.763Z,3.04
2024-01-27T00:31:00.664Z,3.00
2024-01-27T00:33:28.309Z,2.82
2024-01-27T00:35:56.092Z,3.05
2024-01-27T00:38:23.709Z,3.05
2024-01-27T00:40:51.378Z,2.76
2024-01-27T00:43:21.752Z,2.51
2024-01-27T00:45:49.294Z,2.65
2024-01-27T00:48:18.358Z,2.85
2024-01-27T00:50:48.422Z,3.01
2024-01-27T00:53:16.092Z,2.72
2024-01-27T00:55:44.303Z,2.79
2024-01-27T00:58:11.805Z,2.61
2024-01-27T01:00:39.580Z,2.45
2024-01-27T01:03:07.183Z,2.77
2024-01-27T01:05:36.119Z,3.18
2024-01-27T01:08:04.271Z,2.62
2024-01-27T01:10:32.622Z,2.49
2024-01-27T01:13:00.193Z,2.66
2024-01-27T01:15:27.934Z,2.53
2024-01-27T01:17:55.735Z,2.59
2024-01-27T01:20:23.486Z,2.56
2024-01-27T01:22:52.388Z,3.17
2024-01-27T01:25:19.969Z,2.89
2024-01-27T01:27:49.353Z,2.95
2024-01-27T01:30:17.798Z,2.53
2024-01-27T01:32:45.476Z,2.86
2024-01-27T01:35:13.114Z,3.02
2024-01-27T01:37:40.829Z,2.49
2024-01-27T01:40:10.886Z,2.71
2024-01-27T01:42:38.486Z,2.51
2024-01-27T01:45:06.618Z,2.45
2024-01-27T01:47:34.903Z,2.30
2024-01-27T01:50:02.965Z,2.40
2024-01-27T01:52:30.788Z,2.17
2024-01-27T01:54:58.537Z,2.36
2024-01-27T01:57:27.599Z,2.53
2024-01-27T01:59:55.401Z,2.30
2024-01-27T02:02:23.042Z,2.73
2024-01-27T02:04:50.631Z,2.65
2024-01-27T02:07:18.217Z,2.66
2024-01-27T02:09:46.205Z,2.69
2024-01-27T02:12:13.839Z,2.11
2024-01-27T02:14:42.873Z,1.66
2024-01-27T02:17:10.439Z,2.25
2024-01-27T02:19:38.241Z,2.29
2024-01-27T02:22:06.128Z,2.71
2024-01-27T02:24:35.040Z,2.45
2024-01-27T02:27:02.637Z,1.83
2024-01-27T02:29:30.190Z,1.65
2024-01-27T02:31:58.362Z,1.82
2024-01-27T02:34:26.028Z,1.61
2024-01-27T02:36:53.643Z,2.03
2024-01-27T02:39:21.470Z,2.15
2024-01-27T02:41:50.501Z,2.01
2024-01-27T02:44:18.066Z,2.48
2024-01-27T02:46:45.692Z,2.50
2024-01-27T02:49:13.449Z,1.78
2024-01-27T02:51:41.056Z,1.83
2024-01-27T02:54:10.629Z,1.73
2024-01-27T02:56:38.282Z,1.79
2024-01-27T02:59:07.656Z,1.83
2024-01-27T03:01:35.215Z,1.46
2024-01-27T03:04:02.838Z,1.52
2024-01-27T03:06:30.619Z,1.40
2024-01-27T03:08:58.280Z,1.81
2024-01-27T03:11:26.149Z,1.42
2024-01-27T03:13:53.717Z,1.77
2024-01-27T03:16:22.648Z,1.78
2024-01-27T03:18:50.342Z,2.20
2024-01-27T03:21:17.959Z,2.20
2024-01-27T03:23:45.551Z,1.65
2024-01-27T03:26:13.193Z,2.44
2024-01-27T03:28:41.502Z,2.39
2024-01-27T03:31:09.095Z,2.09
2024-01-27T03:33:38.275Z,2.24
2024-01-27T03:36:11.513Z,2.23
2024-01-27T03:38:39.151Z,1.92
2024-01-27T03:41:06.931Z,1.63
2024-01-27T03:43:36.039Z,1.25
2024-01-27T03:46:04.157Z,1.38
2024-01-27T03:48:31.972Z,1.46
2024-01-27T03:51:01.010Z,1.33
2024-01-27T03:53:28.606Z,1.38
2024-01-27T03:55:59.397Z,1.38
2024-01-27T03:58:29.320Z,1.86
2024-01-27T04:00:56.939Z,1.76
2024-01-27T04:03:24.637Z,1.55
2024-01-27T04:05:52.325Z,1.21
2024-01-27T04:08:21.222Z,0.87
2024-01-27T04:10:48.835Z,1.04
2024-01-27T04:13:16.391Z,1.07
2024-01-27T04:15:44.012Z,1.46
2024-01-27T04:18:12.840Z,1.51
2024-01-27T04:20:40.811Z,1.21
2024-01-27T04:23:08.515Z,1.69
2024-01-27T04:25:37.377Z,1.31
2024-01-27T04:28:05.436Z,1.84
2024-01-27T04:30:32.175Z,2.01
2024-01-27T04:33:00.341Z,2.21
2024-01-27T04:35:28.041Z,2.20
2024-01-27T04:37:56.642Z,2.27
2024-01-27T04:40:24.205Z,2.28
2024-01-27T04:42:53.825Z,2.29
2024-01-27T04:45:21.576Z,2.25
2024-01-27T04:47:49.170Z,2.35
2024-01-27T04:50:17.052Z,2.38
2024-01-27T04:52:44.604Z,2.27
2024-01-27T04:55:14.462Z,2.33
2024-01-27T04:57:42.084Z,2.25
2024-01-27T05:00:13.678Z,2.22
2024-01-27T05:02:41.761Z,2.24
2024-01-27T05:05:09.702Z,2.20
2024-01-27T05:07:37.278Z,2.12
2024-01-27T05:10:05.256Z,2.25
2024-01-27T05:12:33.049Z,2.16
2024-01-27T05:15:00.775Z,2.16
2024-01-27T05:17:29.752Z,2.15
2024-01-27T05:19:57.707Z,2.13
2024-01-27T05:22:25.355Z,2.04
2024-01-27T05:24:55.842Z,1.96
2024-01-27T05:27:23.460Z,2.07
2024-01-27T05:29:51.141Z,2.06
2024-01-27T05:32:19.984Z,1.92
2024-01-27T05:34:48.991Z,1.83
2024-01-27T05:37:16.449Z,2.02
2024-01-27T05:39:44.038Z,1.97
2024-01-27T05:42:11.645Z,2.12
2024-01-27T05:44:41.574Z,2.13
2024-01-27T05:47:12.273Z,2.05
2024-01-27T05:49:40.273Z,1.82
2024-01-27T05:52:09.287Z,1.99
2024-01-27T05:54:37.719Z,1.98
2024-01-27T05:57:05.843Z,2.03
2024-01-27T05:59:33.404Z,1.97
2024-01-27T06:02:01.018Z,1.90
2024-01-27T06:04:29.105Z,1.84
2024-01-27T06:06:56.778Z,1.76
2024-01-27T06:09:25.742Z,1.62
2024-01-27T06:11:53.413Z,1.47
2024-01-27T06:14:21.312Z,1.56
2024-01-27T06:16:48.832Z,1.58
2024-01-27T06:19:16.616Z,1.66
2024-01-27T06:21:44.280Z,1.75
2024-01-27T06:24:11.942Z,1.76
2024-01-27T06:26:40.799Z,1.24
2024-01-27T06:29:08.410Z,1.60
2024-01-27T06:31:35.941Z,1.25
2024-01-27T06:34:03.608Z,1.57
2024-01-27T06:36:34.017Z,1.24
2024-01-27T06:39:01.799Z,1.14
2024-01-27T06:41:29.339Z,0.72
2024-01-27T06:43:58.200Z,1.13
2024-01-27T06:46:25.850Z,0.62
2024-01-27T06:48:53.518Z,0.13
2024-01-27T06:51:21.217Z,0.82
2024-01-27T06:53:49.694Z,1.35
2024-01-27T06:56:17.766Z,1.25
2024-01-27T06:58:45.289Z,1.20
2024-01-27T07:01:14.220Z,1.25
2024-01-27T07:03:41.972Z,1.40
2024-01-27T07:06:09.805Z,1.10
2024-01-27T07:08:38.937Z,1.25
2024-01-27T07:11:06.752Z,1.21
2024-01-27T07:13:34.721Z,1.31
2024-01-27T07:16:02.330Z,1.33
2024-01-27T07:18:36.229Z,0.94
2024-01-27T07:21:06.549Z,0.89
2024-01-27T07:23:36.343Z,0.75
2024-01-27T07:26:05.080Z,0.79
2024-01-27T07:28:32.652Z,1.15
2024-01-27T07:31:00.379Z,1.07
2024-01-27T07:33:28.121Z,0.85
2024-01-27T07:35:57.190Z,1.26
2024-01-27T07:38:24.853Z,1.32
2024-01-27T07:40:52.370Z,1.29
2024-01-27T07:43:19.913Z,1.25
2024-01-27T07:45:47.669Z,1.02
2024-01-27T07:48:15.386Z,0.99
2024-01-27T07:50:46.849Z,0.74
2024-01-27T07:53:15.844Z,1.19
2024-01-27T07:55:43.565Z,0.77
2024-01-27T07:58:11.124Z,0.75
2024-01-27T08:00:39.287Z,1.05
2024-01-27T08:03:07.262Z,0.57
2024-01-27T08:05:35.202Z,0.87
2024-01-27T08:08:02.793Z,1.17
2024-01-27T08:10:34.286Z,1.11
2024-01-27T08:13:01.852Z,0.52
2024-01-27T08:15:29.389Z,1.11
2024-01-27T08:17:57.082Z,1.02
2024-01-27T08:20:24.782Z,0.90
2024-01-27T08:22:52.580Z,1.18
2024-01-27T08:25:20.306Z,0.94
2024-01-27T08:27:49.656Z,0.71
2024-01-27T08:30:17.316Z,0.95
2024-01-27T08:32:44.944Z,1.32
2024-01-27T08:35:12.948Z,1.06
2024-01-27T08:37:40.669Z,1.02
2024-01-27T08:40:09.407Z,1.00
2024-01-27T08:42:37.119Z,1.23
2024-01-27T08:45:07.518Z,1.29
2024-01-27T08:47:35.953Z,1.16
2024-01-27T08:50:03.739Z,1.23
2024-01-27T08:52:31.318Z,1.42
2024-01-27T08:54:58.818Z,1.42
2024-01-27T08:57:26.456Z,1.63
2024-01-27T08:59:54.075Z,1.72
2024-01-27T09:02:23.246Z,1.50
2024-01-27T09:04:50.867Z,1.41
2024-01-27T09:07:18.618Z,1.52
2024-01-27T09:09:46.615Z,1.47
2024-01-27T09:12:14.509Z,1.51
2024-01-27T09:14:42.459Z,1.42
2024-01-27T09:17:10.180Z,1.61
2024-01-27T09:19:39.260Z,1.45
2024-01-27T09:22:06.886Z,1.55
2024-01-27T09:24:34.514Z,1.54
2024-01-27T09:27:02.964Z,1.62
2024-01-27T09:29:31.250Z,1.64
2024-01-27T09:31:59.309Z,1.66
2024-01-27T09:34:28.802Z,1.74
2024-01-27T09:36:57.958Z,1.73
2024-01-27T09:39:25.601Z,1.80
2024-01-27T09:41:53.926Z,1.81
2024-01-27T09:44:21.467Z,1.83
2024-01-27T09:46:49.662Z,1.93
2024-01-27T09:49:17.347Z,1.97
2024-01-27T09:51:45.083Z,2.09
2024-01-27T09:54:16.137Z,2.15
2024-01-27T09:56:47.420Z,2.17
2024-01-27T09:59:17.250Z,2.18
2024-01-27T10:01:45.865Z,2.21
2024-01-27T10:04:15.101Z,2.24
2024-01-27T10:06:43.107Z,2.45
2024-01-27T10:09:11.115Z,2.42
2024-01-27T10:11:42.542Z,2.45
2024-01-27T10:14:10.230Z,2.71
2024-01-27T10:16:43.227Z,2.67
2024-01-27T10:19:17.035Z,2.88
2024-01-27T10:21:44.756Z,2.77
2024-01-27T10:24:12.492Z,2.67
2024-01-27T10:26:41.637Z,2.74
2024-01-27T10:29:11.098Z,2.69
2024-01-27T10:31:38.958Z,2.78
2024-01-27T10:34:10.238Z,3.00
2024-01-27T10:36:41.807Z,2.98
2024-01-27T10:39:17.938Z,2.99
2024-01-27T10:41:48.716Z,3.22
2024-01-27T10:44:17.670Z,3.08
2024-01-27T10:46:46.762Z,2.98
2024-01-27T10:49:15.845Z,3.12
2024-01-27T10:51:47.027Z,3.21
2024-01-27T10:54:20.304Z,3.61
2024-01-27T10:56:50.718Z,3.51
2024-01-27T10:59:23.231Z,3.34
2024-01-27T11:01:53.130Z,3.38
2024-01-27T11:04:21.946Z,3.40
2024-01-27T11:06:50.402Z,3.62
2024-01-27T11:09:20.357Z,3.63
2024-01-27T11:11:50.149Z,3.63
2024-01-27T11:14:18.040Z,3.56
2024-01-27T11:16:47.661Z,3.60
2024-01-27T11:19:15.517Z,3.55
2024-01-27T11:21:43.356Z,3.56
2024-01-27T11:24:19.104Z,3.78
2024-01-27T11:26:46.937Z,3.79
2024-01-27T11:29:20.580Z,3.92
2024-01-27T11:31:48.643Z,3.83
2024-01-27T11:34:17.733Z,3.87
2024-01-27T11:36:45.661Z,3.83
2024-01-27T11:39:26.558Z,4.08
2024-01-27T11:41:54.511Z,4.06
2024-01-27T11:44:23.433Z,4.11
2024-01-27T11:46:51.046Z,4.50
2024-01-27T11:49:19.174Z,4.24
2024-01-27T11:51:46.809Z,4.18
2024-01-27T11:54:14.652Z,4.17
2024-01-27T11:56:42.228Z,4.25
2024-01-27T11:59:09.891Z,4.31
2024-01-27T12:01:40.479Z,4.11
2024-01-27T12:04:08.328Z,4.35
2024-01-27T12:06:36.043Z,4.11
2024-01-27T12:09:03.783Z,4.25
2024-01-27T12:11:32.386Z,4.12
2024-01-27T12:13:59.959Z,4.15
2024-01-27T12:16:27.860Z,4.33
2024-01-27T12:18:57.094Z,4.33
2024-01-27T12:21:25.851Z,4.54
2024-01-27T12:23:56.572Z,4.41
2024-01-27T12:26:24.542Z,4.61
2024-01-27T12:28:52.176Z,4.66
2024-01-27T12:31:20.391Z,4.71
2024-01-27T12:33:51.947Z,4.52
2024-01-27T12:36:22.066Z,4.45
2024-01-27T12:38:55.330Z,4.39
2024-01-27T12:41:23.030Z,4.41
2024-01-27T12:43:50.972Z,4.50
2024-01-27T12:46:18.622Z,4.66
2024-01-27T12:48:47.012Z,4.50
2024-01-27T12:51:14.822Z,4.59
2024-01-27T12:53:45.628Z,4.58
2024-01-27T12:56:14.131Z,4.55
2024-01-27T12:58:42.544Z,4.59
2024-01-27T13:01:10.964Z,4.60
2024-01-27T13:03:41.744Z,4.76
2024-01-27T13:06:12.695Z,4.86
2024-01-27T13:08:40.602Z,4.75
2024-01-27T13:11:09.517Z,4.66
2024-01-27T13:13:36.974Z,4.66
2024-01-27T13:16:04.838Z,4.52
2024-01-27T13:18:32.538Z,4.49
2024-01-27T13:21:00.515Z,4.57
2024-01-27T13:23:28.074Z,4.78
2024-01-27T13:26:08.130Z,4.67
2024-01-27T13:28:44.640Z,4.60
2024-01-27T13:31:12.017Z,4.57
2024-01-27T13:33:39.765Z,4.57
2024-01-27T13:36:08.134Z,4.52
2024-01-27T13:38:36.626Z,4.57
2024-01-27T13:41:04.321Z,4.51
2024-01-27T13:43:32.127Z,4.59
2024-01-27T13:46:01.126Z,4.59
2024-01-27T13:48:29.212Z,4.51
2024-01-27T13:50:56.900Z,4.78
2024-01-27T13:53:35.486Z,4.64
2024-01-27T13:56:10.688Z,4.58
2024-01-27T13:58:38.401Z,4.54
2024-01-27T14:01:09.415Z,4.73
2024-01-27T14:03:39.139Z,4.66
2024-01-27T14:06:08.606Z,4.66
2024-01-27T14:08:36.276Z,4.55
2024-01-27T14:11:03.932Z,4.50
2024-01-27T14:13:31.608Z,4.50
2024-01-27T14:15:59.718Z,4.51
2024-01-27T14:18:29.521Z,4.45
2024-01-27T14:23:24.707Z,4.50
2024-01-27T14:25:52.400Z,4.40
2024-01-27T14:28:19.991Z,4.38
2024-01-27T14:30:47.605Z,4.39
2024-01-27T14:33:15.860Z,4.32
2024-01-27T14:35:44.833Z,4.31
2024-01-27T14:38:12.652Z,4.25
2024-01-27T14:40:40.195Z,4.32
2024-01-27T14:43:10.631Z,4.25
2024-01-27T14:45:38.575Z,4.27
2024-01-27T14:48:07.411Z,4.28
2024-01-27T14:50:34.977Z,4.13
2024-01-27T14:53:04.314Z,4.07
2024-01-27T14:55:33.954Z,4.03
2024-01-27T14:58:03.050Z,3.95
2024-01-27T15:00:30.702Z,4.02
2024-01-27T15:02:58.351Z,3.96
2024-01-27T15:05:25.903Z,3.86
2024-01-27T15:07:53.494Z,3.84
2024-01-27T15:10:24.038Z,3.83
2024-01-27T15:12:52.393Z,3.82
2024-01-27T15:15:19.995Z,3.82
2024-01-27T15:17:47.861Z,3.91
2024-01-27T15:20:15.997Z,3.86
2024-01-27T15:22:45.029Z,3.86
2024-01-27T15:25:13.164Z,3.88
2024-01-27T15:27:42.360Z,3.91
2024-01-27T15:30:10.857Z,3.97
2024-01-27T15:32:38.584Z,3.96
2024-01-27T15:35:07.168Z,3.86
2024-01-27T15:37:34.701Z,3.92
2024-01-27T15:40:02.683Z,3.89
2024-01-27T15:42:30.592Z,3.87
2024-01-27T15:44:59.548Z,3.86
2024-01-27T15:47:26.984Z,3.74
2024-01-27T15:49:58.368Z,3.68
2024-01-27T15:52:26.275Z,3.71
2024-01-27T15:54:54.801Z,3.66
2024-01-27T15:57:23.226Z,3.63
2024-01-27T15:59:51.474Z,3.57
2024-01-27T16:02:20.366Z,3.58
2024-01-27T16:04:47.909Z,3.57
2024-01-27T16:07:15.654Z,3.53
2024-01-27T16:09:47.892Z,3.51
2024-01-27T16:12:15.668Z,3.48
2024-01-27T16:14:43.346Z,3.40
2024-01-27T16:17:12.193Z,3.41
2024-01-27T16:19:41.305Z,3.37
2024-01-27T16:22:08.936Z,3.38
2024-01-27T16:24:36.641Z,3.35
2024-01-27T16:27:04.617Z,3.19
2024-01-27T16:29:32.203Z,3.16
2024-01-27T16:31:59.993Z,3.21
2024-01-27T16:34:27.654Z,3.19
2024-01-27T16:36:56.566Z,3.17
2024-01-27T16:39:24.189Z,3.15
2024-01-27T16:41:51.725Z,3.15
2024-01-27T16:44:19.231Z,3.15
2024-01-27T16:46:47.036Z,3.12
2024-01-27T16:49:14.857Z,2.98
2024-01-27T16:51:42.477Z,2.91
2024-01-27T16:54:12.713Z,2.92
2024-01-27T16:56:40.352Z,2.87
2024-01-27T16:59:09.098Z,2.86
2024-01-27T17:01:37.208Z,2.81
2024-01-27T17:04:06.161Z,2.80
2024-01-27T17:06:33.979Z,2.78
2024-01-27T17:09:02.141Z,2.77
2024-01-27T17:11:31.079Z,2.74
2024-01-27T17:14:00.582Z,2.59
2024-01-27T17:16:28.168Z,2.66
2024-01-27T17:18:56.011Z,2.75
2024-01-27T17:21:23.727Z,2.56
2024-01-27T17:23:51.278Z,2.61
2024-01-27T17:26:19.274Z,2.57
2024-01-27T17:28:48.265Z,2.62
2024-01-27T17:31:15.779Z,2.57
2024-01-27T17:33:47.166Z,2.55
2024-01-27T17:36:15.303Z,2.55
2024-01-27T17:38:42.986Z,2.52
2024-01-27T17:41:10.588Z,2.41
2024-01-27T17:43:38.212Z,2.51
2024-01-27T17:46:07.225Z,2.38
2024-01-27T17:48:34.729Z,2.39
2024-01-27T17:51:02.314Z,2.36
2024-01-27T17:53:29.939Z,2.25
2024-01-27T17:55:57.683Z,2.23
2024-01-27T17:58:25.276Z,2.23
2024-01-27T18:00:52.938Z,2.19
2024-01-27T18:03:23.215Z,2.22
2024-01-27T18:05:51.200Z,2.21
2024-01-27T18:08:18.833Z,2.15
2024-01-27T18:10:46.436Z,2.15
2024-01-27T18:13:14.017Z,2.15
2024-01-27T18:15:40.670Z,2.10
2024-01-27T18:18:08.752Z,2.07
2024-01-27T18:20:37.671Z,2.02
2024-01-27T18:23:05.693Z,1.98
2024-01-27T18:25:36.525Z,1.98
2024-01-27T18:28:06.326Z,2.01
2024-01-27T18:30:34.412Z,1.76
2024-01-27T18:33:05.551Z,1.92
2024-01-27T18:35:33.960Z,1.90
2024-01-27T18:38:03.562Z,1.82
2024-01-27T18:40:31.281Z,1.76
2024-01-27T18:42:58.962Z,1.76
2024-01-27T18:45:26.837Z,1.87
2024-01-27T18:47:54.690Z,1.68
2024-01-27T18:50:22.398Z,1.72
2024-01-27T18:52:54.288Z,1.83
2024-01-27T18:55:24.859Z,1.79
2024-01-27T18:57:52.656Z,1.78
2024-01-27T19:00:20.579Z,1.72
2024-01-27T19:02:48.224Z,1.64
2024-01-27T19:05:17.698Z,1.62
2024-01-27T19:07:46.651Z,1.66
2024-01-27T19:10:14.225Z,1.68
2024-01-27T19:12:43.263Z,1.60
2024-01-27T19:15:11.397Z,1.64
2024-01-27T19:17:39.000Z,1.57
2024-01-27T19:20:07.387Z,1.52
2024-01-27T19:22:34.971Z,1.54
2024-01-27T19:25:02.477Z,1.60
2024-01-27T19:27:31.675Z,1.57
2024-01-27T19:30:00.737Z,1.43
2024-01-27T19:32:28.412Z,1.56
2024-01-27T19:34:56.903Z,1.14
2024-01-27T19:37:24.577Z,1.29
2024-01-27T19:39:52.284Z,1.36
2024-01-27T19:42:19.898Z,1.32
2024-01-27T19:44:47.438Z,1.37
2024-01-27T19:47:16.393Z,1.30
2024-01-27T19:49:44.124Z,1.37
2024-01-27T19:52:11.752Z,1.25
2024-01-27T19:54:39.805Z,1.18
2024-01-27T19:57:07.537Z,1.15
2024-01-27T19:59:35.101Z,1.04
2024-01-27T20:02:02.820Z,1.19
2024-01-27T20:04:31.909Z,1.25
2024-01-27T20:07:01.755Z,1.26
2024-01-27T20:09:29.472Z,1.12
2024-01-27T20:11:57.537Z,1.09
2024-01-27T20:14:25.207Z,0.90
2024-01-27T20:16:53.719Z,1.05
2024-01-27T20:19:23.292Z,1.02
2024-01-27T20:21:52.425Z,1.06
2024-01-27T20:24:20.140Z,1.08
2024-01-27T20:26:48.958Z,0.89
2024-01-27T20:29:17.508Z,0.83
2024-01-27T20:31:45.380Z,0.90
2024-01-27T20:34:13.177Z,0.98
2024-01-27T20:36:40.939Z,1.04
2024-01-27T20:39:10.557Z,1.00
2024-01-27T20:41:38.928Z,0.81
2024-01-27T20:44:05.708Z,0.97
2024-01-27T20:46:33.434Z,0.98
2024-01-27T20:49:01.513Z,0.81
2024-01-27T20:51:29.444Z,0.57
2024-01-27T20:53:57.270Z,0.67
2024-01-27T20:56:28.308Z,0.81
2024-01-27T20:58:56.013Z,0.84
2024-01-27T21:01:23.858Z,0.80
2024-01-27T21:03:51.556Z,0.79
2024-01-27T21:06:19.199Z,0.79
2024-01-27T21:08:46.842Z,0.78
2024-01-27T21:11:16.787Z,0.68
2024-01-27T21:13:46.172Z,0.71
2024-01-27T21:16:13.882Z,0.73
2024-01-27T21:18:42.241Z,0.76
2024-01-27T21:21:10.031Z,0.56
2024-01-27T21:23:37.701Z,0.54
2024-01-27T21:26:05.652Z,0.64
2024-01-27T21:28:33.380Z,0.65
2024-01-27T21:31:02.315Z,0.53
2024-01-27T21:33:30.000Z,0.44
2024-01-27T21:35:57.814Z,0.45
2024-01-27T21:38:25.445Z,0.60
2024-01-27T21:40:53.048Z,0.52
2024-01-27T21:43:20.582Z,0.58
2024-01-27T21:45:48.224Z,0.45
2024-01-27T21:48:18.241Z,0.46
2024-01-27T21:50:46.131Z,0.38
2024-01-27T21:53:13.824Z,0.40
2024-01-27T21:55:41.665Z,0.42
2024-01-27T21:58:09.621Z,0.42
2024-01-27T22:00:37.450Z,0.51
2024-01-27T22:03:05.370Z,0.42
2024-01-27T22:05:34.594Z,0.33
2024-01-27T22:08:04.374Z,0.20
2024-01-27T22:10:32.016Z,0.32
2024-01-27T22:12:59.537Z,0.36
2024-01-27T22:15:27.150Z,0.29
2024-01-27T22:17:54.746Z,0.24
2024-01-27T22:20:22.375Z,0.30
2024-01-27T22:22:51.290Z,0.34
2024-01-27T22:25:18.925Z,0.25
2024-01-27T22:27:47.381Z,0.36
2024-01-27T22:30:16.177Z,0.15
2024-01-27T22:32:44.124Z,0.15
2024-01-27T22:35:11.790Z,0.17
2024-01-27T22:37:39.373Z,0.20
2024-01-27T22:40:10.543Z,0.09
2024-01-27T22:42:38.369Z,0.21
2024-01-27T22:45:07.309Z,0.13
2024-01-27T22:47:35.079Z,0.08
2024-01-27T22:50:04.416Z,0.16
2024-01-27T22:52:32.196Z,0.07
2024-01-27T22:54:59.881Z,0.03
2024-01-27T22:57:29.963Z,-0.10
2024-01-27T22:59:57.535Z,-0.04
2024-01-27T23:02:25.197Z,-0.01
2024-01-27T23:04:54.012Z,-0.06
2024-01-27T23:07:21.730Z,0.05
2024-01-27T23:09:49.416Z,0.02
2024-01-27T23:12:17.205Z,-0.01
2024-01-27T23:14:46.097Z,-0.04
2024-01-27T23:17:13.761Z,-0.14
2024-01-27T23:19:41.507Z,-0.10
2024-01-27T23:22:09.190Z,-0.11
2024-01-27T23:24:36.824Z,-0.13
2024-01-27T23:27:04.573Z,-0.19
2024-01-27T23:29:38.080Z,-0.16
2024-01-27T23:32:08.019Z,-0.51
2024-01-27T23:34:35.771Z,-0.35
2024-01-27T23:37:03.522Z,-0.26
2024-01-27T23:39:31.204Z,-0.48
2024-01-27T23:41:58.772Z,-0.27
2024-01-27T23:44:26.295Z,-0.18
2024-01-27T23:46:53.918Z,-0.19
2024-01-27T23:49:23.112Z,-0.25
2024-01-27T23:51:50.713Z,-0.24
2024-01-27T23:54:18.364Z,-0.17
2024-01-27T23:56:46.471Z,-0.34
2024-01-27T23:59:15.934Z,-0.26
